sensor_id;sensor_type;location;lat;lon;timestamp;pressure;altitude;pressure_sealevel;temperature;humidity
63739;BME280;68816;45.558;10.070;2024-03-22T00:01:55;100446.50;;;13.01;100.00
63739;BME280;68816;45.558;10.070;2024-03-22T00:04:21;100446.50;;;13.01;100.00
63739;BME280;68816;45.558;10.070;2024-03-22T00:06:48;100441.31;;;13.05;100.00
63739;BME280;68816;45.558;10.070;2024-03-22T00:09:17;100443.97;;;12.88;100.00
63739;BME280;68816;45.558;10.070;2024-03-22T00:11:43;100442.44;;;12.92;100.00
63739;BME280;68816;45.558;10.070;2024-03-22T00:14:10;100436.38;;;12.95;100.00
63739;BME280;68816;45.558;10.070;2024-03-22T00:16:36;100442.44;;;12.81;100.00
63739;BME280;68816;45.558;10.070;2024-03-22T00:19:02;100435.53;;;12.83;100.00
63739;BME280;68816;45.558;10.070;2024-03-22T00:21:28;100442.16;;;12.94;100.00
63739;BME280;68816;45.558;10.070;2024-03-22T00:23:55;100440.84;;;12.96;100.00
63739;BME280;68816;45.558;10.070;2024-03-22T00:26:20;100440.50;;;12.81;100.00
63739;BME280;68816;45.558;10.070;2024-03-22T00:28:46;100443.50;;;12.91;100.00
63739;BME280;68816;45.558;10.070;2024-03-22T00:31:12;100442.16;;;12.94;100.00
63739;BME280;68816;45.558;10.070;2024-03-22T00:33:37;100434.69;;;12.83;100.00
63739;BME280;68816;45.558;10.070;2024-03-22T00:36:03;100444.94;;;12.59;100.00
63739;BME280;68816;45.558;10.070;2024-03-22T00:38:29;100446.25;;;12.56;100.00
63739;BME280;68816;45.558;10.070;2024-03-22T00:40:55;100444.22;;;12.52;100.00
63739;BME280;68816;45.558;10.070;2024-03-22T00:43:20;100446.72;;;12.53;100.00
63739;BME280;68816;45.558;10.070;2024-03-22T00:45:46;100437.06;;;12.44;100.00
63739;BME280;68816;45.558;10.070;2024-03-22T00:48:12;100438.38;;;12.42;100.00
63739;BME280;68816;45.558;10.070;2024-03-22T00:50:37;100440.31;;;12.41;100.00
63739;BME280;68816;45.558;10.070;2024-03-22T00:53:03;100437.72;;;12.58;100.00
63739;BME280;68816;45.558;10.070;2024-03-22T00:55:30;100433.59;;;12.60;100.00
63739;BME280;68816;45.558;10.070;2024-03-22T00:57:56;100439.03;;;12.55;100.00
63739;BME280;68816;45.558;10.070;2024-03-22T01:00:21;100440.47;;;12.46;100.00
63739;BME280;68816;45.558;10.070;2024-03-22T01:02:47;100431.16;;;12.41;100.00
63739;BME280;68816;45.558;10.070;2024-03-22T01:05:13;100438.28;;;12.48;100.00
63739;BME280;68816;45.558;10.070;2024-03-22T01:07:40;100436.94;;;12.39;100.00
63739;BME280;68816;45.558;10.070;2024-03-22T01:10:05;100438.13;;;12.31;100.00
63739;BME280;68816;45.558;10.070;2024-03-22T01:12:31;100437.94;;;12.45;100.00
63739;BME280;68816;45.558;10.070;2024-03-22T01:14:57;100430.44;;;12.33;100.00
63739;BME280;68816;45.558;10.070;2024-03-22T01:17:23;100424.41;;;12.48;100.00
63739;BME280;68816;45.558;10.070;2024-03-22T01:19:49;100426.22;;;12.43;100.00
63739;BME280;68816;45.558;10.070;2024-03-22T01:22:16;100421.41;;;12.38;100.00
63739;BME280;68816;45.558;10.070;2024-03-22T01:24:41;100421.16;;;12.40;100.00
63739;BME280;68816;45.558;10.070;2024-03-22T01:27:07;100422.59;;;12.42;100.00
63739;BME280;68816;45.558;10.070;2024-03-22T01:29:32;100419.94;;;12.47;100.00
63739;BME280;68816;45.558;10.070;2024-03-22T01:31:58;100420.44;;;12.44;100.00
63739;BME280;68816;45.558;10.070;2024-03-22T01:34:24;100424.28;;;12.43;100.00
63739;BME280;68816;45.558;10.070;2024-03-22T01:36:50;100418.97;;;12.53;100.00
63739;BME280;68816;45.558;10.070;2024-03-22T01:39:16;100424.06;;;12.56;100.00
63739;BME280;68816;45.558;10.070;2024-03-22T01:41:43;100427.94;;;12.67;100.00
63739;BME280;68816;45.558;10.070;2024-03-22T01:44:09;100423.69;;;12.64;100.00
63739;BME280;68816;45.558;10.070;2024-03-22T01:46:35;100424.44;;;12.60;100.00
63739;BME280;68816;45.558;10.070;2024-03-22T01:49:01;100424.06;;;12.56;100.00
63739;BME280;68816;45.558;10.070;2024-03-22T01:51:26;100425.75;;;12.34;100.00
63739;BME280;68816;45.558;10.070;2024-03-22T01:53:52;100424.16;;;12.26;100.00
63739;BME280;68816;45.558;10.070;2024-03-22T01:56:19;100419.06;;;12.23;100.00
63739;BME280;68816;45.558;10.070;2024-03-22T01:58:45;100414.72;;;12.16;100.00
63739;BME280;68816;45.558;10.070;2024-03-22T02:01:11;100418.31;;;12.05;100.00
63739;BME280;68816;45.558;10.070;2024-03-22T02:03:36;100421.44;;;12.08;100.00
63739;BME280;68816;45.558;10.070;2024-03-22T02:06:02;100427.13;;;12.13;100.00
63739;BME280;68816;45.558;10.070;2024-03-22T02:08:28;100427.47;;;12.05;100.00
63739;BME280;68816;45.558;10.070;2024-03-22T02:10:53;100425.69;;;12.11;100.00
63739;BME280;68816;45.558;10.070;2024-03-22T02:13:19;100426.75;;;12.10;100.00
63739;BME280;68816;45.558;10.070;2024-03-22T02:15:44;100423.38;;;12.08;100.00
63739;BME280;68816;45.558;10.070;2024-03-22T02:18:09;100430.72;;;12.02;100.00
63739;BME280;68816;45.558;10.070;2024-03-22T02:20:35;100415.25;;;11.94;100.00
63739;BME280;68816;45.558;10.070;2024-03-22T02:23:00;100421.78;;;11.70;100.00
63739;BME280;68816;45.558;10.070;2024-03-22T02:25:26;100423.91;;;11.86;100.00
63739;BME280;68816;45.558;10.070;2024-03-22T02:27:51;100426.59;;;11.93;100.00
63739;BME280;68816;45.558;10.070;2024-03-22T02:30:17;100425.69;;;11.81;100.00
63739;BME280;68816;45.558;10.070;2024-03-22T02:32:42;100423.28;;;11.84;100.00
63739;BME280;68816;45.558;10.070;2024-03-22T02:35:08;100422.22;;;11.85;100.00
63739;BME280;68816;45.558;10.070;2024-03-22T02:37:34;100414.41;;;11.64;100.00
63739;BME280;68816;45.558;10.070;2024-03-22T02:39:59;100415.91;;;11.78;100.00
63739;BME280;68816;45.558;10.070;2024-03-22T02:42:25;100417.13;;;11.82;100.00
63739;BME280;68816;45.558;10.070;2024-03-22T02:44:51;100421.16;;;11.68;100.00
63739;BME280;68816;45.558;10.070;2024-03-22T02:47:17;100416.06;;;11.65;100.00
63739;BME280;68816;45.558;10.070;2024-03-22T02:49:42;100422.00;;;11.69;100.00
63739;BME280;68816;45.558;10.070;2024-03-22T02:52:08;100430.75;;;11.84;100.00
63739;BME280;68816;45.558;10.070;2024-03-22T02:54:33;100430.75;;;11.84;100.00
63739;BME280;68816;45.558;10.070;2024-03-22T02:56:59;100430.47;;;11.74;100.00
63739;BME280;68816;45.558;10.070;2024-03-22T02:59:28;100423.63;;;11.76;100.00
63739;BME280;68816;45.558;10.070;2024-03-22T03:01:54;100423.22;;;11.73;100.00
63739;BME280;68816;45.558;10.070;2024-03-22T03:04:19;100416.63;;;11.74;100.00
63739;BME280;68816;45.558;10.070;2024-03-22T03:06:45;100418.34;;;11.57;100.00
63739;BME280;68816;45.558;10.070;2024-03-22T03:09:11;100418.84;;;11.65;100.00
63739;BME280;68816;45.558;10.070;2024-03-22T03:11:38;100419.00;;;11.70;100.00
63739;BME280;68816;45.558;10.070;2024-03-22T03:14:04;100413.00;;;11.55;100.00
63739;BME280;68816;45.558;10.070;2024-03-22T03:16:29;100410.91;;;11.69;100.00
63739;BME280;68816;45.558;10.070;2024-03-22T03:18:55;100414.22;;;11.59;100.00
63739;BME280;68816;45.558;10.070;2024-03-22T03:21:20;100414.56;;;11.51;100.00
63739;BME280;68816;45.558;10.070;2024-03-22T03:33:27;100418.50;;;11.43;100.00
63739;BME280;68816;45.558;10.070;2024-03-22T03:35:53;100423.94;;;11.50;100.00
63739;BME280;68816;45.558;10.070;2024-03-22T03:38:18;100421.03;;;11.45;100.00
63739;BME280;68816;45.558;10.070;2024-03-22T03:40:44;100427.81;;;11.31;100.00
63739;BME280;68816;45.558;10.070;2024-03-22T03:43:09;100421.91;;;11.27;100.00
63739;BME280;68816;45.558;10.070;2024-03-22T03:45:38;100426.16;;;11.30;100.00
63739;BME280;68816;45.558;10.070;2024-03-22T03:48:04;100432.28;;;11.32;100.00
63739;BME280;68816;45.558;10.070;2024-03-22T03:50:29;100425.38;;;11.04;100.00
63739;BME280;68816;45.558;10.070;2024-03-22T03:52:55;100429.13;;;11.10;100.00
63739;BME280;68816;45.558;10.070;2024-03-22T03:55:22;100434.59;;;11.17;100.00
63739;BME280;68816;45.558;10.070;2024-03-22T03:57:50;100427.06;;;11.05;100.00
63739;BME280;68816;45.558;10.070;2024-03-22T04:00:16;100429.97;;;11.10;100.00
63739;BME280;68816;45.558;10.070;2024-03-22T04:02:41;100430.22;;;11.09;100.00
63739;BME280;68816;45.558;10.070;2024-03-22T04:05:07;100425.38;;;11.04;100.00
63739;BME280;68816;45.558;10.070;2024-03-22T04:07:33;100431.69;;;11.11;100.00
63739;BME280;68816;45.558;10.070;2024-03-22T04:09:58;100432.19;;;11.02;100.00
63739;BME280;68816;45.558;10.070;2024-03-22T04:12:26;100441.13;;;11.04;100.00
63739;BME280;68816;45.558;10.070;2024-03-22T04:14:52;100435.97;;;11.07;100.00
63739;BME280;68816;45.558;10.070;2024-03-22T04:17:18;100442.03;;;10.98;100.00
63739;BME280;68816;45.558;10.070;2024-03-22T04:19:43;100443.50;;;11.00;100.00
63739;BME280;68816;45.558;10.070;2024-03-22T04:22:09;100433.19;;;10.89;100.00
63739;BME280;68816;45.558;10.070;2024-03-22T04:24:35;100446.66;;;11.04;100.00
63739;BME280;68816;45.558;10.070;2024-03-22T04:27:00;100454.25;;;11.08;100.00
63739;BME280;68816;45.558;10.070;2024-03-22T04:29:26;100450.44;;;11.09;100.00
63739;BME280;68816;45.558;10.070;2024-03-22T04:31:51;100464.34;;;11.03;100.00
63739;BME280;68816;45.558;10.070;2024-03-22T04:34:17;100466.00;;;10.86;100.00
63739;BME280;68816;45.558;10.070;2024-03-22T04:36:43;100467.53;;;10.82;100.00
63739;BME280;68816;45.558;10.070;2024-03-22T04:39:09;100464.56;;;10.83;100.00
63739;BME280;68816;45.558;10.070;2024-03-22T04:41:35;100465.56;;;10.89;100.00
63739;BME280;68816;45.558;10.070;2024-03-22T04:44:01;100468.78;;;11.04;100.00
63739;BME280;68816;45.558;10.070;2024-03-22T04:46:26;100462.69;;;10.95;100.00
63739;BME280;68816;45.558;10.070;2024-03-22T04:48:52;100468.84;;;10.97;100.00
63739;BME280;68816;45.558;10.070;2024-03-22T04:51:17;100466.56;;;10.94;100.00
63739;BME280;68816;45.558;10.070;2024-03-22T04:53:43;100474.63;;;10.96;100.00
63739;BME280;68816;45.558;10.070;2024-03-22T04:56:09;100456.09;;;10.96;100.00
63739;BME280;68816;45.558;10.070;2024-03-22T04:58:35;100463.94;;;10.99;100.00
63739;BME280;68816;45.558;10.070;2024-03-22T05:01:01;100463.38;;;10.91;100.00
63739;BME280;68816;45.558;10.070;2024-03-22T05:03:26;100458.53;;;10.86;100.00
63739;BME280;68816;45.558;10.070;2024-03-22T05:05:52;100462.00;;;10.82;100.00
63739;BME280;68816;45.558;10.070;2024-03-22T05:08:17;100463.84;;;10.88;100.00
63739;BME280;68816;45.558;10.070;2024-03-22T05:10:43;100460.94;;;11.01;100.00
63739;BME280;68816;45.558;10.070;2024-03-22T05:13:09;100463.47;;;11.02;100.00
63739;BME280;68816;45.558;10.070;2024-03-22T05:15:34;100470.56;;;10.98;100.00
63739;BME280;68816;45.558;10.070;2024-03-22T05:18:00;100474.72;;;11.07;100.00
63739;BME280;68816;45.558;10.070;2024-03-22T05:20:26;100477.47;;;11.07;100.00
63739;BME280;68816;45.558;10.070;2024-03-22T05:22:52;100482.94;;;11.14;100.00
63739;BME280;68816;45.558;10.070;2024-03-22T05:25:18;100484.19;;;11.00;100.00
63739;BME280;68816;45.558;10.070;2024-03-22T05:27:44;100481.72;;;11.10;100.00
63739;BME280;68816;45.558;10.070;2024-03-22T05:30:11;100486.25;;;11.04;100.00
63739;BME280;68816;45.558;10.070;2024-03-22T05:32:37;100497.84;;;11.13;100.00
63739;BME280;68816;45.558;10.070;2024-03-22T05:35:03;100493.56;;;11.17;100.00
63739;BME280;68816;45.558;10.070;2024-03-22T05:37:28;100489.97;;;11.17;100.00
63739;BME280;68816;45.558;10.070;2024-03-22T05:39:54;100490.47;;;11.25;100.00
63739;BME280;68816;45.558;10.070;2024-03-22T05:42:20;100489.03;;;11.23;100.00
63739;BME280;68816;45.558;10.070;2024-03-22T05:44:46;100495.94;;;11.32;100.00
63739;BME280;68816;45.558;10.070;2024-03-22T05:47:11;100493.66;;;11.29;100.00
63739;BME280;68816;45.558;10.070;2024-03-22T05:49:37;100491.47;;;11.31;100.00
63739;BME280;68816;45.558;10.070;2024-03-22T05:52:03;100492.09;;;11.15;100.00
63739;BME280;68816;45.558;10.070;2024-03-22T05:54:28;100495.56;;;11.10;100.00
63739;BME280;68816;45.558;10.070;2024-03-22T05:56:55;100494.50;;;11.29;100.00
63739;BME280;68816;45.558;10.070;2024-03-22T05:59:21;100488.72;;;11.31;100.00
63739;BME280;68816;45.558;10.070;2024-03-22T06:01:46;100490.03;;;11.28;100.00
63739;BME280;68816;45.558;10.070;2024-03-22T06:04:12;100487.13;;;11.41;100.00
63739;BME280;68816;45.558;10.070;2024-03-22T06:06:38;100484.50;;;11.46;100.00
63739;BME280;68816;45.558;10.070;2024-03-22T06:09:04;100489.19;;;11.46;100.00
63739;BME280;68816;45.558;10.070;2024-03-22T06:11:35;100495.09;;;11.49;100.00
63739;BME280;68816;45.558;10.070;2024-03-22T06:14:01;100487.88;;;11.67;100.00
63739;BME280;68816;45.558;10.070;2024-03-22T06:16:26;100495.41;;;11.60;100.00
63739;BME280;68816;45.558;10.070;2024-03-22T06:18:52;100493.56;;;11.72;100.00
63739;BME280;68816;45.558;10.070;2024-03-22T06:21:18;100487.97;;;11.78;100.00
63739;BME280;68816;45.558;10.070;2024-03-22T06:23:51;100490.78;;;11.90;98.63
63739;BME280;68816;45.558;10.070;2024-03-22T06:26:17;100490.84;;;12.02;100.00
63739;BME280;68816;45.558;10.070;2024-03-22T06:28:43;100488.47;;;12.05;98.48
63739;BME280;68816;45.558;10.070;2024-03-22T06:31:08;100491.38;;;12.10;96.03
63739;BME280;68816;45.558;10.070;2024-03-22T06:33:34;100491.63;;;12.20;95.91
63739;BME280;68816;45.558;10.070;2024-03-22T06:36:00;100492.53;;;12.32;94.72
63739;BME280;68816;45.558;10.070;2024-03-22T06:38:26;100495.53;;;12.31;96.40
63739;BME280;68816;45.558;10.070;2024-03-22T06:40:51;100490.97;;;12.48;95.41
63739;BME280;68816;45.558;10.070;2024-03-22T06:43:17;100495.34;;;12.56;95.63
63739;BME280;68816;45.558;10.070;2024-03-22T06:45:43;100494.97;;;12.52;93.67
63739;BME280;68816;45.558;10.070;2024-03-22T06:48:08;100498.13;;;12.56;93.83
63739;BME280;68816;45.558;10.070;2024-03-22T06:50:34;100489.09;;;12.72;92.49
63739;BME280;68816;45.558;10.070;2024-03-22T06:53:00;100490.78;;;12.73;93.29
63739;BME280;68816;45.558;10.070;2024-03-22T06:55:25;100501.56;;;12.93;93.56
63739;BME280;68816;45.558;10.070;2024-03-22T06:57:51;100495.88;;;13.11;93.42
63739;BME280;68816;45.558;10.070;2024-03-22T07:00:18;100500.13;;;13.25;92.31
63739;BME280;68816;45.558;10.070;2024-03-22T07:02:44;100507.59;;;13.36;89.89
63739;BME280;68816;45.558;10.070;2024-03-22T07:05:10;100503.00;;;13.53;87.60
63739;BME280;68816;45.558;10.070;2024-03-22T07:07:36;100503.31;;;13.69;87.02
63739;BME280;68816;45.558;10.070;2024-03-22T07:10:03;100494.22;;;13.85;83.90
63739;BME280;68816;45.558;10.070;2024-03-22T07:12:31;100504.22;;;13.97;85.21
63739;BME280;68816;45.558;10.070;2024-03-22T07:14:57;100499.97;;;13.95;88.01
63739;BME280;68816;45.558;10.070;2024-03-22T07:17:23;100500.78;;;14.07;82.17
63739;BME280;68816;45.558;10.070;2024-03-22T07:19:50;100507.28;;;14.13;82.17
63739;BME280;68816;45.558;10.070;2024-03-22T07:22:17;100509.31;;;14.17;80.62
63739;BME280;68816;45.558;10.070;2024-03-22T07:24:42;100503.78;;;14.34;79.49
63739;BME280;68816;45.558;10.070;2024-03-22T07:27:08;100500.97;;;14.46;80.42
63739;BME280;68816;45.558;10.070;2024-03-22T07:29:34;100499.66;;;14.48;79.39
63739;BME280;68816;45.558;10.070;2024-03-22T07:31:59;100504.53;;;14.58;82.21
63739;BME280;68816;45.558;10.070;2024-03-22T07:34:25;100508.63;;;14.67;84.76
63739;BME280;68816;45.558;10.070;2024-03-22T07:36:50;100507.69;;;14.78;80.15
63739;BME280;68816;45.558;10.070;2024-03-22T07:39:16;100509.03;;;14.92;75.52
63739;BME280;68816;45.558;10.070;2024-03-22T07:41:42;100512.91;;;14.91;75.64
63739;BME280;68816;45.558;10.070;2024-03-22T07:44:07;100505.38;;;15.08;74.73
63739;BME280;68816;45.558;10.070;2024-03-22T07:46:33;100508.75;;;15.27;82.17
63739;BME280;68816;45.558;10.070;2024-03-22T07:48:59;100503.06;;;15.39;80.35
63739;BME280;68816;45.558;10.070;2024-03-22T07:51:25;100499.94;;;15.52;73.99
63739;BME280;68816;45.558;10.070;2024-03-22T07:53:50;100506.06;;;15.71;73.28
63739;BME280;68816;45.558;10.070;2024-03-22T07:56:17;100502.25;;;15.77;76.74
63739;BME280;68816;45.558;10.070;2024-03-22T07:58:44;100495.28;;;15.79;72.62
63739;BME280;68816;45.558;10.070;2024-03-22T08:01:10;100506.72;;;15.78;69.33
63739;BME280;68816;45.558;10.070;2024-03-22T08:03:36;100505.81;;;15.94;70.70
63739;BME280;68816;45.558;10.070;2024-03-22T08:06:01;100501.19;;;16.05;69.41
63739;BME280;68816;45.558;10.070;2024-03-22T08:08:27;100500.19;;;16.16;71.55
63739;BME280;68816;45.558;10.070;2024-03-22T08:10:52;100499.78;;;16.29;68.54
63739;BME280;68816;45.558;10.070;2024-03-22T08:13:18;100493.56;;;16.49;68.56
63739;BME280;68816;45.558;10.070;2024-03-22T08:15:44;100498.78;;;16.40;66.94
63739;BME280;68816;45.558;10.070;2024-03-22T08:18:11;100487.47;;;16.52;66.75
63739;BME280;68816;45.558;10.070;2024-03-22T08:20:36;100489.69;;;16.76;67.39
63739;BME280;68816;45.558;10.070;2024-03-22T08:23:04;100491.81;;;16.64;62.84
63739;BME280;68816;45.558;10.070;2024-03-22T08:25:30;100491.84;;;16.69;63.79
63739;BME280;68816;45.558;10.070;2024-03-22T08:27:56;100490.19;;;16.73;63.05
63739;BME280;68816;45.558;10.070;2024-03-22T08:30:22;100489.41;;;16.78;62.84
63739;BME280;68816;45.558;10.070;2024-03-22T08:32:48;100487.22;;;16.85;62.60
63739;BME280;68816;45.558;10.070;2024-03-22T08:35:14;100492.34;;;16.93;61.88
63739;BME280;68816;45.558;10.070;2024-03-22T08:37:39;100486.31;;;17.06;63.13
63739;BME280;68816;45.558;10.070;2024-03-22T08:40:05;100493.91;;;17.16;61.91
63739;BME280;68816;45.558;10.070;2024-03-22T08:42:32;100484.38;;;17.12;62.39
63739;BME280;68816;45.558;10.070;2024-03-22T08:44:58;100493.13;;;17.25;61.59
63739;BME280;68816;45.558;10.070;2024-03-22T08:47:24;100483.44;;;17.43;62.25
63739;BME280;68816;45.558;10.070;2024-03-22T08:49:49;100489.72;;;17.60;62.35
63739;BME280;68816;45.558;10.070;2024-03-22T08:52:15;100484.47;;;17.69;61.39
63739;BME280;68816;45.558;10.070;2024-03-22T08:54:41;100485.59;;;17.68;60.28
63739;BME280;68816;45.558;10.070;2024-03-22T08:57:06;100481.69;;;17.69;62.41
63739;BME280;68816;45.558;10.070;2024-03-22T08:59:32;100483.69;;;17.89;59.44
63739;BME280;68816;45.558;10.070;2024-03-22T09:01:58;100489.59;;;17.87;57.52
63739;BME280;68816;45.558;10.070;2024-03-22T09:04:24;100484.31;;;18.01;58.72
63739;BME280;68816;45.558;10.070;2024-03-22T09:06:50;100484.38;;;18.21;59.68
63739;BME280;68816;45.558;10.070;2024-03-22T09:09:16;100479.91;;;18.30;57.25
63739;BME280;68816;45.558;10.070;2024-03-22T09:11:42;100480.78;;;18.41;56.09
63739;BME280;68816;45.558;10.070;2024-03-22T09:14:08;100481.63;;;18.41;54.99
63739;BME280;68816;45.558;10.070;2024-03-22T09:16:34;100470.50;;;18.62;54.89
63739;BME280;68816;45.558;10.070;2024-03-22T09:18:59;100466.00;;;18.71;54.99
63739;BME280;68816;45.558;10.070;2024-03-22T09:21:25;100466.56;;;18.83;53.05
63739;BME280;68816;45.558;10.070;2024-03-22T09:23:51;100474.44;;;18.86;52.50
63739;BME280;68816;45.558;10.070;2024-03-22T09:26:16;100471.88;;;19.05;51.76
63739;BME280;68816;45.558;10.070;2024-03-22T09:28:42;100471.28;;;19.23;51.66
63739;BME280;68816;45.558;10.070;2024-03-22T09:31:11;100463.72;;;19.39;52.51
63739;BME280;68816;45.558;10.070;2024-03-22T09:33:36;100468.19;;;19.29;50.19
63739;BME280;68816;45.558;10.070;2024-03-22T09:36:02;100461.44;;;19.46;50.49
63739;BME280;68816;45.558;10.070;2024-03-22T09:38:28;100459.22;;;19.33;49.02
63739;BME280;68816;45.558;10.070;2024-03-22T09:40:54;100467.56;;;19.63;49.89
63739;BME280;68816;45.558;10.070;2024-03-22T09:43:21;100459.94;;;19.84;49.90
63739;BME280;68816;45.558;10.070;2024-03-22T09:45:48;100451.19;;;19.90;49.27
63739;BME280;68816;45.558;10.070;2024-03-22T09:48:17;100452.84;;;20.01;48.84
63739;BME280;68816;45.558;10.070;2024-03-22T09:50:44;100448.91;;;20.02;47.85
63739;BME280;68816;45.558;10.070;2024-03-22T09:53:12;100452.25;;;20.04;46.62
63739;BME280;68816;45.558;10.070;2024-03-22T09:55:39;100448.41;;;20.39;47.23
63739;BME280;68816;45.558;10.070;2024-03-22T09:58:09;100430.47;;;20.69;46.07
63739;BME280;68816;45.558;10.070;2024-03-22T10:00:35;100439.03;;;20.88;46.19
63739;BME280;68816;45.558;10.070;2024-03-22T10:03:01;100432.34;;;20.84;45.01
63739;BME280;68816;45.558;10.070;2024-03-22T10:05:28;100431.50;;;20.83;44.36
63739;BME280;68816;45.558;10.070;2024-03-22T10:07:54;100432.66;;;20.77;43.89
63739;BME280;68816;45.558;10.070;2024-03-22T10:10:20;100436.34;;;21.07;44.30
63739;BME280;68816;45.558;10.070;2024-03-22T10:12:46;100430.56;;;20.93;43.70
63739;BME280;68816;45.558;10.070;2024-03-22T10:15:11;100431.72;;;21.21;44.50
63739;BME280;68816;45.558;10.070;2024-03-22T10:17:39;100424.91;;;21.51;46.29
63739;BME280;68816;45.558;10.070;2024-03-22T10:20:05;100416.19;;;21.52;46.28
63739;BME280;68816;45.558;10.070;2024-03-22T10:23:11;100415.81;;;21.59;41.43
63739;BME280;68816;45.558;10.070;2024-03-22T10:25:37;100422.38;;;21.49;41.98
63739;BME280;68816;45.558;10.070;2024-03-22T10:28:02;100411.38;;;21.53;39.82
63739;BME280;68816;45.558;10.070;2024-03-22T10:30:29;100415.69;;;21.45;41.24
63739;BME280;68816;45.558;10.070;2024-03-22T10:32:56;100415.31;;;21.28;40.16
63739;BME280;68816;45.558;10.070;2024-03-22T10:35:21;100412.81;;;21.50;39.92
63739;BME280;68816;45.558;10.070;2024-03-22T10:37:48;100407.09;;;21.60;38.81
63739;BME280;68816;45.558;10.070;2024-03-22T10:40:14;100411.44;;;21.71;38.54
63739;BME280;68816;45.558;10.070;2024-03-22T10:42:41;100398.25;;;22.09;39.58
63739;BME280;68816;45.558;10.070;2024-03-22T10:45:08;100400.19;;;21.90;39.90
63739;BME280;68816;45.558;10.070;2024-03-22T10:47:36;100395.91;;;22.17;40.43
63739;BME280;68816;45.558;10.070;2024-03-22T10:50:09;100394.50;;;22.51;38.76
63739;BME280;68816;45.558;10.070;2024-03-22T10:52:39;100392.56;;;22.33;38.20
63739;BME280;68816;45.558;10.070;2024-03-22T10:55:08;100387.81;;;22.47;37.38
63739;BME280;68816;45.558;10.070;2024-03-22T10:57:38;100385.00;;;22.47;36.88
63739;BME280;68816;45.558;10.070;2024-03-22T11:00:10;100389.75;;;21.91;37.42
63739;BME280;68816;45.558;10.070;2024-03-22T11:02:37;100387.25;;;22.13;38.12
63739;BME280;68816;45.558;10.070;2024-03-22T11:05:04;100383.31;;;22.65;38.29
63739;BME280;68816;45.558;10.070;2024-03-22T11:07:30;100391.56;;;22.05;38.61
63739;BME280;68816;45.558;10.070;2024-03-22T11:09:57;100388.78;;;21.82;37.23
63739;BME280;68816;45.558;10.070;2024-03-22T11:12:26;100387.66;;;22.20;38.73
63739;BME280;68816;45.558;10.070;2024-03-22T11:14:53;100379.59;;;22.32;37.56
63739;BME280;68816;45.558;10.070;2024-03-22T11:17:19;100372.78;;;22.71;37.31
63739;BME280;68816;45.558;10.070;2024-03-22T11:19:48;100372.06;;;22.46;35.92
63739;BME280;68816;45.558;10.070;2024-03-22T11:22:13;100370.09;;;22.79;35.12
63739;BME280;68816;45.558;10.070;2024-03-22T11:24:40;100367.97;;;23.99;34.42
63739;BME280;68816;45.558;10.070;2024-03-22T11:27:06;100370.09;;;24.74;33.23
63739;BME280;68816;45.558;10.070;2024-03-22T11:29:32;100365.28;;;24.97;32.21
63739;BME280;68816;45.558;10.070;2024-03-22T11:31:59;100359.66;;;25.45;31.29
63739;BME280;68816;45.558;10.070;2024-03-22T11:34:25;100351.53;;;26.61;29.97
63739;BME280;68816;45.558;10.070;2024-03-22T11:36:53;100343.16;;;26.04;29.22
63739;BME280;68816;45.558;10.070;2024-03-22T11:39:19;100329.66;;;26.09;30.69
63739;BME280;68816;45.558;10.070;2024-03-22T11:41:44;100336.69;;;26.03;30.46
63739;BME280;68816;45.558;10.070;2024-03-22T11:44:11;100328.34;;;26.41;30.70
63739;BME280;68816;45.558;10.070;2024-03-22T11:46:39;100316.69;;;27.15;29.15
63739;BME280;68816;45.558;10.070;2024-03-22T11:49:05;100314.84;;;26.47;29.59
63739;BME280;68816;45.558;10.070;2024-03-22T11:51:30;100316.16;;;25.89;29.75
63739;BME280;68816;45.558;10.070;2024-03-22T11:53:56;100316.31;;;25.36;30.81
63739;BME280;68816;45.558;10.070;2024-03-22T11:56:22;100309.50;;;26.28;29.15
63739;BME280;68816;45.558;10.070;2024-03-22T11:58:48;100302.28;;;27.20;28.20
63739;BME280;68816;45.558;10.070;2024-03-22T12:01:15;100292.28;;;27.82;26.68
63739;BME280;68816;45.558;10.070;2024-03-22T12:03:43;100293.59;;;28.46;26.43
63739;BME280;68816;45.558;10.070;2024-03-22T12:06:10;100295.41;;;28.96;26.03
63739;BME280;68816;45.558;10.070;2024-03-22T12:08:37;100291.91;;;29.72;25.74
63739;BME280;68816;45.558;10.070;2024-03-22T12:11:07;100290.47;;;29.66;24.83
63739;BME280;68816;45.558;10.070;2024-03-22T12:13:34;100286.31;;;28.70;25.51
63739;BME280;68816;45.558;10.070;2024-03-22T12:15:59;100286.53;;;28.32;23.97
63739;BME280;68816;45.558;10.070;2024-03-22T12:18:25;100282.91;;;29.70;23.11
63739;BME280;68816;45.558;10.070;2024-03-22T12:20:50;100271.22;;;29.87;23.68
63739;BME280;68816;45.558;10.070;2024-03-22T12:23:16;100264.47;;;30.47;23.64
63739;BME280;68816;45.558;10.070;2024-03-22T12:25:42;100261.09;;;31.01;22.60
63739;BME280;68816;45.558;10.070;2024-03-22T12:28:07;100257.50;;;31.35;22.23
63739;BME280;68816;45.558;10.070;2024-03-22T12:30:33;100250.84;;;31.47;23.00
63739;BME280;68816;45.558;10.070;2024-03-22T12:32:59;100250.63;;;30.62;23.45
63739;BME280;68816;45.558;10.070;2024-03-22T12:35:24;100236.91;;;32.15;22.61
63739;BME280;68816;45.558;10.070;2024-03-22T12:37:51;100240.25;;;32.17;21.54
63739;BME280;68816;45.558;10.070;2024-03-22T12:40:17;100240.59;;;30.68;21.92